Latest Coastal Weather Observations for Cooktown

IDQ60701

Issued at 6:32 pm EST Saturday 13 August 2022 (issued every 10 minutes, with the page automatically refreshed every 10 minutes)

About coastal observations | Map of coastal stations | Coastal observations for QLD | Marine services | Other Formats
Station Details ID: 031209 Name: COOKTOWN AIRPORT Lat: -15.45 Lon: 145.19 Height: 4.8 m
Data from the previous 72 hours. | See also: Recent months at Cooktown
Date/Time
EST
Wind Sea
Height
m
Swell Vis
km
Cloud Weather Temp
°C
Press
MSL
hPa
Rain since
9am
mm
Dir  Spd
kts
Gust
kts
Height
m
Period
s
Dir
13/06:30pm ESE 8 11 - - - - 10 Partly cloudy - 22.8 1013.5 0.0
13/06:00pm ESE 9 15 - - - - 10 Mostly clear - 23.2 1013.2 0.0
13/05:30pm ESE 10 16 - - - - 10 - - 23.8 1012.9 0.0
13/05:00pm ESE 10 16 - - - - 10 - - 24.5 1012.8 0.0
13/04:30pm ESE 13 19 - - - - 10 - - 25.1 1012.6 0.0
13/04:00pm ESE 13 18 - - - - 10 - - 25.6 1012.7 0.0
13/03:30pm ESE 13 19 - - - - 10 - - 26.3 1012.8 0.0
13/03:00pm ESE 14 20 - - - - 10 - - 26.7 1012.9 0.0
13/02:30pm ESE 14 20 - - - - 10 - - 26.5 1013.2 0.0
13/02:00pm ESE 14 19 - - - - 10 - - 26.8 1013.6 0.0
13/01:30pm ESE 14 22 - - - - 10 - - 27.5 1013.9 0.0
13/01:00pm ESE 13 19 - - - - 10 Partly cloudy - 27.7 1014.3 0.0
13/12:30pm ESE 12 23 - - - - 10 Partly cloudy - 26.7 1014.7 0.0
13/12:00pm ESE 13 18 - - - - 10 Mostly clear - 27.8 1015.0 0.0
13/11:30am ESE 13 18 - - - - 10 Partly cloudy - 27.2 1015.6 0.0
13/11:00am ESE 11 18 - - - - 10 Partly cloudy - 27.1 1015.8 0.0
13/10:30am ESE 11 15 - - - - 10 - - 26.5 1015.9 0.0
13/10:00am SE 10 13 - - - - 10 - - 26.0 1016.0 0.0
13/09:30am SE 5 8 - - - - 10 - - 25.7 1016.0 0.0
13/09:00am SSE 4 7 - - - - 10 - - 24.0 1015.8 0.0
13/08:30am SW 1 3 - - - - 10 - - 21.9 1015.6 0.0
13/08:00am CALM 0 3 - - - - 10 - - 20.1 1015.4 0.0
13/07:30am CALM 0 0 - - - - 10 - - 18.6 1015.0 0.0
13/07:00am WNW 1 3 - - - - 10 - - 17.5 1014.7 0.0
13/06:30am CALM 0 0 - - - - 10 - - 17.7 1014.5 0.0
13/06:00am CALM 0 0 - - - - 10 - - 17.9 1014.2 0.0
13/05:30am CALM 0 0 - - - - 10 - - 18.0 1014.0 0.0
13/05:00am CALM 0 0 - - - - 10 - - 18.8 1013.7 0.0
13/04:30am CALM 0 0 - - - - 10 - - 19.1 1013.6 0.0
13/04:00am CALM 0 0 - - - - 10 - - 19.8 1013.4 0.0
13/03:30am SE 5 10 - - - - 10 - - 21.2 1013.7 0.0
13/03:13am SE 5 7 - - - - 10 Partly cloudy - 21.3 1013.8 0.0
13/03:00am SE 4 6 - - - - 10 Partly cloudy - 21.6 1013.9 0.0
13/02:39am SE 5 8 - - - - 10 Partly cloudy - 21.7 1014.1 0.0
13/02:30am SE 5 7 - - - - 10 Partly cloudy - 21.6 1014.1 0.0
13/02:00am SE 6 8 - - - - 10 Partly cloudy - 21.6 1014.5 0.0
13/01:55am SE 6 8 - - - - 10 Partly cloudy - 21.7 1014.6 0.0
13/01:30am SE 6 11 - - - - 10 Partly cloudy - 22.1 1014.8 0.0
13/01:25am SE 6 9 - - - - 10 Partly cloudy - 22.1 1015.0 0.0
13/01:00am ESE 7 11 - - - - 10 - - 22.1 1015.3 0.0
13/12:30am SE 8 13 - - - - 10 - - 22.3 1015.8 0.0
13/12:12am SE 7 11 - - - - 10 Partly cloudy - 22.2 1015.9 0.0
13/12:00am SE 7 10 - - - - 10 Partly cloudy - 22.2 1015.9 0.0
 
Date/Time
EST
Wind Sea
Height
m
Swell Vis
km
Cloud Weather Temp
°C
Press
MSL
hPa
Rain since
9am
mm
Dir  Spd
kts
Gust
kts
Height
m
Period
s
Dir
12/11:30pm ESE 4 7 - - - - 10 Partly cloudy - 21.9 1016.2 0.0
12/11:19pm ESE 4 6 - - - - 10 Partly cloudy - 21.9 1016.1 0.0
12/11:00pm SE 7 11 - - - - 10 - - 22.0 1016.2 0.0
12/10:30pm SE 6 10 - - - - 10 - - 22.3 1016.6 0.0
12/10:00pm SE 6 11 - - - - 10 Partly cloudy - 22.4 1016.5 0.0
12/09:30pm ESE 6 9 - - - - 10 Partly cloudy - 22.4 1016.8 0.0
12/09:04pm ESE 6 10 - - - - 10 Partly cloudy - 22.8 1016.7 0.0
12/09:00pm SE 6 10 - - - - 10 Cloudy - 22.8 1016.7 0.0
12/08:30pm SE 5 8 - - - - 10 Partly cloudy - 22.7 1016.3 0.0
12/08:26pm SE 6 9 - - - - 10 Partly cloudy - 22.8 1016.4 0.0
12/08:00pm SE 7 11 - - - - 10 Partly cloudy - 22.7 1016.1 0.0
12/07:30pm SE 6 9 - - - - 10 Partly cloudy - 22.5 1015.6 0.0
12/07:00pm SE 6 9 - - - - 10 Partly cloudy - 22.6 1015.2 0.0
12/06:30pm ESE 7 11 - - - - 10 - - 22.6 1014.8 0.0
12/06:00pm ESE 8 13 - - - - 10 - - 23.2 1014.4 0.0
12/05:30pm ESE 11 17 - - - - 10 Partly cloudy - 24.1 1014.2 0.0
12/05:00pm ESE 11 17 - - - - 10 Cloudy - 24.5 1013.9 0.0
12/04:30pm ESE 13 19 - - - - 10 Cloudy - 25.2 1013.6 0.0
12/04:00pm ESE 13 19 - - - - 10 Partly cloudy - 25.7 1013.5 0.0
12/03:30pm ESE 13 20 - - - - 10 Partly cloudy - 26.2 1013.4 0.0
12/03:00pm ESE 12 16 - - - - 10 Mostly cloudy - 27.1 1013.4 0.0
12/02:30pm ESE 13 19 - - - - 10 Partly cloudy - 27.1 1013.7 0.0
12/02:00pm ESE 12 18 - - - - 10 Partly cloudy - 27.5 1014.0 0.0
12/01:30pm ESE 11 17 - - - - 10 Partly cloudy - 27.9 1014.3 0.0
12/01:00pm ESE 10 15 - - - - 10 Partly cloudy - 27.8 1014.9 0.0
12/12:30pm SE 11 16 - - - - 10 Partly cloudy - 27.7 1015.4 0.0
12/12:00pm ESE 14 19 - - - - 10 Mostly cloudy - 26.8 1015.9 0.0
12/11:30am SE 9 14 - - - - 10 Partly cloudy - 27.0 1016.5 0.0
12/11:00am SE 12 19 - - - - 10 Partly cloudy - 26.1 1016.7 0.0
12/10:30am SE 13 19 - - - - 10 Partly cloudy - 25.8 1016.8 0.0
12/10:00am SE 12 20 - - - - 10 Partly cloudy - 26.4 1016.9 0.0
12/09:30am SE 11 17 - - - - 10 - - 26.1 1016.7 0.0
12/09:00am SE 9 14 - - - - 10 - - 25.5 1016.5 0.0
12/08:30am SE 7 10 - - - - 10 Partly cloudy - 24.9 1016.3 0.0
12/08:00am SE 7 10 - - - - 10 Cloudy - 23.6 1016.0 0.0
12/07:30am SE 5 14 - - - - 10 Cloudy - 22.5 1015.8 0.0
12/07:00am CALM 0 0 - - - - 10 Partly cloudy - 19.6 1015.6 0.0
12/06:30am CALM 0 3 - - - - 10 - - 20.6 1015.1 0.0
12/06:00am SE 5 7 - - - - 10 - - 22.1 1014.6 0.0
12/05:30am SE 8 12 - - - - 10 Partly cloudy - 22.8 1014.3 0.0
12/05:00am SE 9 14 - - - - 10 Partly cloudy - 23.2 1014.3 0.0
12/04:30am SE 8 15 - - - - 10 Cloudy - 23.3 1014.5 0.0
12/04:00am ESE 10 14 - - - - 10 Partly cloudy - 23.4 1014.5 0.0
12/03:30am ESE 8 12 - - - - 10 Partly cloudy - 23.3 1014.7 0.0
12/03:00am ESE 11 18 - - - - 10 Cloudy - 23.3 1014.9 0.0
12/02:30am ESE 9 14 - - - - 10 Partly cloudy - 22.9 1015.2 0.0
12/02:00am SE 9 16 - - - - 10 Cloudy - 22.8 1015.2 0.0
12/01:30am SE 7 11 - - - - 10 Partly cloudy - 22.8 1015.7 0.0
12/01:00am SE 10 15 - - - - 10 Cloudy - 23.0 1016.0 0.0
12/12:30am SE 9 13 - - - - 10 Partly cloudy - 23.1 1016.4 0.0
12/12:00am SE 8 14 - - - - 10 Cloudy - 22.9 1016.7 0.0
 
Date/Time
EST
Wind Sea
Height
m
Swell Vis
km
Cloud Weather Temp
°C
Press
MSL
hPa
Rain since
9am
mm
Dir  Spd
kts
Gust
kts
Height
m
Period
s
Dir
11/11:30pm SE 9 14 - - - - 10 Partly cloudy - 22.4 1016.9 0.0
11/11:00pm SE 7 15 - - - - 10 Partly cloudy - 23.0 1017.1 0.0
11/10:30pm SE 9 16 - - - - 10 Partly cloudy - 23.0 1017.3 0.0
11/10:00pm SE 8 14 - - - - 10 Partly cloudy - 23.1 1017.0 0.0
11/09:30pm SE 10 19 - - - - 10 Partly cloudy - 23.1 1017.0 0.0
11/09:00pm SE 10 15 - - - - 10 Cloudy - 22.9 1016.8 0.0
11/08:30pm SE 7 14 - - - - 10 Cloudy - 22.9 1016.7 0.0
11/08:00pm SE 11 20 - - - - 10 Cloudy - 23.2 1016.1 0.0
11/07:30pm SE 12 21 - - - - 10 Partly cloudy - 23.3 1016.0 0.0
11/07:00pm SE 10 16 - - - - 10 Partly cloudy - 23.5 1015.7 0.0
11/06:30pm SE 10 19 - - - - 10 Partly cloudy - 23.5 1015.4 0.0
11/06:00pm SE 10 18 - - - - 10 Cloudy - 23.7 1015.1 0.0
11/05:30pm ESE 14 18 - - - - 10 Partly cloudy - 24.1 1014.8 0.0
11/05:00pm SE 11 18 - - - - 10 Partly cloudy - 24.3 1014.6 0.0
11/04:30pm SE 15 23 - - - - 10 Partly cloudy - 25.0 1014.5 0.0
11/04:00pm SE 15 24 - - - - 10 Partly cloudy - 25.6 1014.5 0.0
11/03:30pm SE 14 22 - - - - 10 Partly cloudy - 26.0 1014.5 0.0
11/03:00pm SE 14 23 - - - - 10 - - 26.0 1014.4 0.0
11/02:30pm ESE 13 21 - - - - 10 - - 26.2 1014.5 0.0
11/02:00pm SE 15 24 - - - - 10 - - 26.4 1014.9 0.0
11/01:30pm ESE 14 21 - - - - 10 Partly cloudy - 26.6 1015.4 0.0
11/01:00pm ESE 10 15 - - - - 10 Partly cloudy - 25.4 1016.0 0.0
11/12:30pm SE 13 20 - - - - 10 Partly cloudy - 25.6 1016.5 0.0
11/12:00pm ESE 14 20 - - - - 10 Partly cloudy - 26.1 1016.8 0.0
11/11:30am SE 12 17 - - - - 10 Cloudy - 25.6 1017.2 0.0
11/11:00am SE 13 18 - - - - 10 Cloudy - 26.1 1017.4 0.0
11/10:30am SE 16 24 - - - - 10 Cloudy - 25.2 1017.8 0.0
11/10:00am SE 13 19 - - - - 10 Partly cloudy - 26.1 1017.6 0.0
11/09:30am ESE 14 22 - - - - 10 Partly cloudy - 25.7 1017.5 0.0
11/09:19am ESE 15 25 - - - - 10 Partly cloudy - 25.6 1017.5 0.0
11/09:00am ESE 14 24 - - - - 10 Mostly cloudy - 24.9 1017.3 0.0
11/08:30am ESE 13 20 - - - - 10 Partly cloudy - 25.5 1017.0 0.0
11/08:00am E 11 17 - - - - 10 Partly cloudy - 22.9 1016.9 0.0
11/07:30am E 16 23 - - - - 10 Partly cloudy - 22.3 1016.8 0.0
11/07:00am E 15 23 - - - - 10 Partly cloudy - 22.6 1016.5 0.0
11/06:54am E 15 23 - - - - 10 Partly cloudy - 22.5 1016.5 0.0
11/06:30am ESE 9 13 - - - - 10 Partly cloudy - 22.4 1016.2 0.0
11/06:00am ESE 11 17 - - - - 10 - - 22.6 1016.1 0.0
11/05:30am ESE 11 15 - - - - 10 - - 22.6 1015.9 0.0
11/05:00am ESE 8 12 - - - - 10 - - 22.3 1015.7 0.0
11/04:30am ESE 8 12 - - - - 10 - - 22.4 1015.4 0.0
11/04:00am ESE 12 17 - - - - 10 - - 22.6 1015.4 0.0
11/03:30am ESE 14 20 - - - - 10 Partly cloudy - 22.9 1015.3 0.0
11/03:00am ESE 13 19 - - - - 10 Mostly cloudy - 23.3 1015.5 0.0
11/02:30am ESE 13 20 - - - - 10 Cloudy - 23.4 1015.7 0.0
11/02:00am ESE 13 21 - - - - 10 Partly cloudy - 23.2 1015.9 0.0
11/01:30am ESE 12 18 - - - - 10 Cloudy - 23.5 1016.2 0.0
11/01:00am ESE 14 21 - - - - 10 Cloudy - 23.5 1016.5 0.0
11/12:30am ESE 15 22 - - - - 10 Cloudy - 23.4 1016.8 0.0
11/12:00am ESE 13 19 - - - - 10 - - 22.6 1017.1 0.0
 
Date/Time
EST
Wind Sea
Height
m
Swell Vis
km
Cloud Weather Temp
°C
Press
MSL
hPa
Rain since
9am
mm
Dir  Spd
kts
Gust
kts
Height
m
Period
s
Dir
10/11:30pm ESE 14 22 - - - - 10 - - 22.8 1017.2 0.0
10/11:00pm ESE 15 23 - - - - 10 Partly cloudy - 22.8 1017.4 0.0
10/10:30pm ESE 14 21 - - - - 10 Partly cloudy - 22.7 1017.4 0.0
10/10:00pm SE 12 19 - - - - 10 Partly cloudy - 22.9 1017.6 0.0
10/09:30pm SE 12 23 - - - - 10 Partly cloudy - 23.2 1017.5 0.0
10/09:00pm SE 10 16 - - - - 10 Cloudy - 22.6 1017.6 0.0
10/08:30pm SE 10 17 - - - - 10 Partly cloudy - 22.8 1017.3 0.0
10/08:00pm SE 10 20 - - - - 10 Partly cloudy - 23.0 1016.9 0.0
10/07:30pm SE 11 19 - - - - 10 Partly cloudy - 22.8 1016.8 0.0
10/07:00pm SE 10 16 - - - - 10 Partly cloudy - 22.7 1016.3 0.0

Other formats

Comma delimited format used in spreadsheet applications
http://www.bom.gov.au/fwo/IDQ60701/IDQ60701.95283.axf

JavaScript Object Notation format (JSON) in row-major order
http://www.bom.gov.au/fwo/IDQ60701/IDQ60701.95283.json

Data quality

Most of these data are generated automatically and are frequently updated. Quality checks on data are not normally performed. It is possible for incorrect values to appear. Refer to information at About Latest Weather Observations and please check the disclaimer before using these data.